Decoded Metar for LFMO (ORANGE in FRANCE) (IATA:N/A) | Meteo·Mobile Aviation Weather
aviador You're here:

LFMO Decoded Metar

ORANGE in FRANCE
Report Time2019-09-21 09:00:00
UTC Time2019-09-21 09:23:53
Flight Rules vfr VFR
Wind320° at 03 kt
W.Decomp.*RWY 32: 3.0 kt HW 0 kt LCW
Visibility9999 m
Phenomena:N/A
Clouds:Broken 054 Hf
Broken 066 Hf
Expected CloudBase > 3,600 ft AGL from Temp-Dew spread
Ceiling5,400 ft
Temp22°C (ISA +7)
Dew Point13°C (57% RH)
AAT21.9°C
QNH1018 hPa
Density Alt1,070 ft
Elevation180 ft
Report Wrong Elevation
Raw Report
LFMO 210900Z AUTO 32003KT 280V360 9999 BKN054 BKN066 22/13 Q1018
BECMG 12010KT=

Extra information for LFMO:More info

Metar Taf Metar & Taf Last 4 Metars F.Rules Stats Wind Profile Meteogram Temp Stats Airport Information Weather charts Add Link Nearby VenuesMetar ALERT Operation Metar Decoded Social comments